sensor_id;sensor_type;location;lat;lon;timestamp;pressure;altitude;pressure_sealevel;temperature;humidity
61113;BME280;47184;57.998;56.184;2023-10-19T00:00:41;99124.44;;;3.84;69.21
61113;BME280;47184;57.998;56.184;2023-10-19T00:03:12;99141.31;;;3.90;69.38
61113;BME280;47184;57.998;56.184;2023-10-19T00:05:39;99120.72;;;3.77;69.48
61113;BME280;47184;57.998;56.184;2023-10-19T00:08:07;99127.72;;;3.86;69.00
61113;BME280;47184;57.998;56.184;2023-10-19T00:10:49;99163.16;;;4.08;69.73
61113;BME280;47184;57.998;56.184;2023-10-19T00:13:30;99082.66;;;3.45;69.99
61113;BME280;47184;57.998;56.184;2023-10-19T00:15:56;99168.38;;;3.98;69.44
61113;BME280;47184;57.998;56.184;2023-10-19T00:18:27;99147.75;;;4.05;69.32
61113;BME280;47184;57.998;56.184;2023-10-19T00:20:56;99085.97;;;3.47;70.09
61113;BME280;47184;57.998;56.184;2023-10-19T00:23:23;99124.69;;;3.62;70.45
61113;BME280;47184;57.998;56.184;2023-10-19T00:26:03;99164.81;;;3.90;70.94
61113;BME280;47184;57.998;56.184;2023-10-19T00:28:44;99095.72;;;3.55;70.30
61113;BME280;47184;57.998;56.184;2023-10-19T00:31:12;99154.22;;;3.91;71.05
61113;BME280;47184;57.998;56.184;2023-10-19T00:33:39;99169.50;;;3.86;71.42
61113;BME280;47184;57.998;56.184;2023-10-19T00:36:09;99086.94;;;3.37;71.82
61113;BME280;47184;57.998;56.184;2023-10-19T00:38:40;99104.09;;;3.49;71.48
61113;BME280;47184;57.998;56.184;2023-10-19T00:41:24;99113.72;;;3.48;71.35
61113;BME280;47184;57.998;56.184;2023-10-19T00:43:56;99066.34;;;3.43;71.41
61113;BME280;47184;57.998;56.184;2023-10-19T00:46:38;99172.91;;;4.06;71.16
61113;BME280;47184;57.998;56.184;2023-10-19T00:49:08;99183.78;;;4.02;71.63
61113;BME280;47184;57.998;56.184;2023-10-19T00:51:47;99173.72;;;4.07;71.26
61113;BME280;47184;57.998;56.184;2023-10-19T00:54:32;99171.94;;;4.17;70.55
61113;BME280;47184;57.998;56.184;2023-10-19T00:57:00;99071.38;;;3.55;70.84
61113;BME280;47184;57.998;56.184;2023-10-19T00:59:33;99163.56;;;4.13;70.81
61113;BME280;47184;57.998;56.184;2023-10-19T01:02:09;99118.22;;;3.95;70.49
61113;BME280;47184;57.998;56.184;2023-10-19T01:04:55;99175.38;;;4.17;71.51
61113;BME280;47184;57.998;56.184;2023-10-19T01:07:27;99179.09;;;4.25;71.21
61113;BME280;47184;57.998;56.184;2023-10-19T01:09:59;99151.75;;;4.09;70.62
61113;BME280;47184;57.998;56.184;2023-10-19T01:12:26;99162.81;;;4.31;70.01
61113;BME280;47184;57.998;56.184;2023-10-19T01:15:13;99184.16;;;4.26;71.37
61113;BME280;47184;57.998;56.184;2023-10-19T01:17:41;99193.34;;;4.40;70.36
61113;BME280;47184;57.998;56.184;2023-10-19T01:20:17;99184.31;;;4.25;70.79
61113;BME280;47184;57.998;56.184;2023-10-19T01:23:05;99149.44;;;3.96;70.19
61113;BME280;47184;57.998;56.184;2023-10-19T01:25:49;99189.38;;;4.26;70.97
61113;BME280;47184;57.998;56.184;2023-10-19T01:28:27;99109.44;;;3.86;70.14
61113;BME280;47184;57.998;56.184;2023-10-19T01:31:21;99123.59;;;3.74;71.03
61113;BME280;47184;57.998;56.184;2023-10-19T01:34:00;99137.91;;;3.80;70.84
61113;BME280;47184;57.998;56.184;2023-10-19T01:36:35;99192.84;;;4.17;70.60
61113;BME280;47184;57.998;56.184;2023-10-19T01:39:15;99111.91;;;3.59;70.92
61113;BME280;47184;57.998;56.184;2023-10-19T01:41:41;99146.81;;;3.77;70.07
61113;BME280;47184;57.998;56.184;2023-10-19T01:44:08;99114.41;;;3.60;70.45
61113;BME280;47184;57.998;56.184;2023-10-19T01:46:39;99169.47;;;4.06;69.84
61113;BME280;47184;57.998;56.184;2023-10-19T01:49:05;99199.03;;;4.26;69.68
61113;BME280;47184;57.998;56.184;2023-10-19T01:51:34;99203.28;;;4.17;70.13
61113;BME280;47184;57.998;56.184;2023-10-19T01:54:09;99178.84;;;4.08;69.83
61113;BME280;47184;57.998;56.184;2023-10-19T01:56:36;99214.56;;;4.17;69.80
61113;BME280;47184;57.998;56.184;2023-10-19T01:59:06;99205.78;;;4.09;70.15
61113;BME280;47184;57.998;56.184;2023-10-19T02:01:34;99209.75;;;4.22;69.56
61113;BME280;47184;57.998;56.184;2023-10-19T02:04:06;99194.22;;;4.11;69.85
61113;BME280;47184;57.998;56.184;2023-10-19T02:06:40;99200.41;;;4.10;69.79
61113;BME280;47184;57.998;56.184;2023-10-19T02:09:12;99137.09;;;3.60;69.14
61113;BME280;47184;57.998;56.184;2023-10-19T02:12:17;99207.16;;;4.13;69.08
61113;BME280;47184;57.998;56.184;2023-10-19T02:14:48;98989.88;;;2.75;67.99
61113;BME280;47184;57.998;56.184;2023-10-19T02:17:15;99126.91;;;3.66;68.88
61113;BME280;47184;57.998;56.184;2023-10-19T02:19:42;99114.81;;;3.56;68.96
61113;BME280;47184;57.998;56.184;2023-10-19T02:22:09;99143.94;;;3.61;69.20
61113;BME280;47184;57.998;56.184;2023-10-19T02:24:37;99190.25;;;3.78;68.61
61113;BME280;47184;57.998;56.184;2023-10-19T02:27:05;99155.59;;;3.66;68.64
61113;BME280;47184;57.998;56.184;2023-10-19T02:29:31;99119.91;;;3.57;68.46
61113;BME280;47184;57.998;56.184;2023-10-19T02:31:57;98954.31;;;2.55;68.96
61113;BME280;47184;57.998;56.184;2023-10-19T02:34:32;99185.56;;;3.91;69.17
61113;BME280;47184;57.998;56.184;2023-10-19T02:36:58;99057.41;;;3.07;68.86
61113;BME280;47184;57.998;56.184;2023-10-19T02:39:24;99103.69;;;3.44;68.94
61113;BME280;47184;57.998;56.184;2023-10-19T02:41:58;99161.66;;;3.67;68.78
61113;BME280;47184;57.998;56.184;2023-10-19T02:44:30;99242.31;;;4.28;69.15
61113;BME280;47184;57.998;56.184;2023-10-19T02:46:56;99144.06;;;3.50;68.55
61113;BME280;47184;57.998;56.184;2023-10-19T02:49:29;99174.03;;;3.94;68.24
61113;BME280;47184;57.998;56.184;2023-10-19T02:51:56;99153.16;;;3.55;69.46
61113;BME280;47184;57.998;56.184;2023-10-19T02:54:30;99156.97;;;3.70;68.75
61113;BME280;47184;57.998;56.184;2023-10-19T02:57:01;99100.63;;;3.10;69.12
61113;BME280;47184;57.998;56.184;2023-10-19T02:59:29;99266.53;;;4.11;68.90
61113;BME280;47184;57.998;56.184;2023-10-19T03:02:03;99085.13;;;3.08;69.17
61113;BME280;47184;57.998;56.184;2023-10-19T03:04:43;99215.69;;;3.86;69.06
61113;BME280;47184;57.998;56.184;2023-10-19T03:07:15;99250.72;;;4.32;69.20
61113;BME280;47184;57.998;56.184;2023-10-19T03:09:44;99228.88;;;3.94;69.21
61113;BME280;47184;57.998;56.184;2023-10-19T03:12:21;99241.81;;;4.05;69.28
61113;BME280;47184;57.998;56.184;2023-10-19T03:14:53;99247.03;;;4.05;68.46
61113;BME280;47184;57.998;56.184;2023-10-19T03:17:21;99223.50;;;3.95;68.78
61113;BME280;47184;57.998;56.184;2023-10-19T03:19:53;99065.66;;;3.03;68.18
61113;BME280;47184;57.998;56.184;2023-10-19T03:22:27;99128.25;;;3.12;69.26
61113;BME280;47184;57.998;56.184;2023-10-19T03:24:53;99205.09;;;3.68;69.03
61113;BME280;47184;57.998;56.184;2023-10-19T03:27:48;99299.81;;;4.18;69.99
61113;BME280;47184;57.998;56.184;2023-10-19T03:30:15;99126.34;;;3.14;69.25
61113;BME280;47184;57.998;56.184;2023-10-19T03:32:47;99149.41;;;3.38;68.74
61113;BME280;47184;57.998;56.184;2023-10-19T03:35:16;99054.22;;;2.75;68.93
61113;BME280;47184;57.998;56.184;2023-10-19T03:37:42;99295.16;;;4.41;69.18
61113;BME280;47184;57.998;56.184;2023-10-19T03:40:10;99255.41;;;4.09;69.30
61113;BME280;47184;57.998;56.184;2023-10-19T03:42:54;99093.50;;;3.02;69.26
61113;BME280;47184;57.998;56.184;2023-10-19T03:45:21;99315.78;;;4.35;68.93
61113;BME280;47184;57.998;56.184;2023-10-19T03:47:53;99330.50;;;4.36;68.90
61113;BME280;47184;57.998;56.184;2023-10-19T03:50:21;99304.09;;;4.10;69.13
61113;BME280;47184;57.998;56.184;2023-10-19T03:52:47;99330.75;;;4.52;68.14
61113;BME280;47184;57.998;56.184;2023-10-19T03:55:13;99308.22;;;4.41;67.95
61113;BME280;47184;57.998;56.184;2023-10-19T03:57:49;99327.59;;;4.48;68.74
61113;BME280;47184;57.998;56.184;2023-10-19T04:00:20;99303.00;;;4.22;69.41
61113;BME280;47184;57.998;56.184;2023-10-19T04:02:51;99343.28;;;4.39;69.93
61113;BME280;47184;57.998;56.184;2023-10-19T04:05:19;99352.50;;;4.43;69.96
61113;BME280;47184;57.998;56.184;2023-10-19T04:07:53;99342.75;;;4.26;69.47
61113;BME280;47184;57.998;56.184;2023-10-19T04:10:24;99345.22;;;4.37;69.87
61113;BME280;47184;57.998;56.184;2023-10-19T04:13:17;99349.22;;;4.41;70.10
61113;BME280;47184;57.998;56.184;2023-10-19T04:15:43;99364.47;;;4.36;70.27
61113;BME280;47184;57.998;56.184;2023-10-19T04:18:10;99353.91;;;4.37;69.63
61113;BME280;47184;57.998;56.184;2023-10-19T04:20:38;99330.91;;;4.31;68.88
61113;BME280;47184;57.998;56.184;2023-10-19T04:23:15;99339.72;;;4.30;69.26
61113;BME280;47184;57.998;56.184;2023-10-19T04:25:41;99372.72;;;4.60;68.29
61113;BME280;47184;57.998;56.184;2023-10-19T04:28:08;99393.94;;;4.67;68.45
61113;BME280;47184;57.998;56.184;2023-10-19T04:30:35;99375.34;;;4.60;67.79
61113;BME280;47184;57.998;56.184;2023-10-19T04:33:03;99395.16;;;4.63;68.30
61113;BME280;47184;57.998;56.184;2023-10-19T04:35:35;99391.03;;;4.51;68.30
61113;BME280;47184;57.998;56.184;2023-10-19T04:38:04;99361.44;;;4.60;67.51
61113;BME280;47184;57.998;56.184;2023-10-19T04:40:33;99408.09;;;4.84;67.63
61113;BME280;47184;57.998;56.184;2023-10-19T04:43:02;99403.28;;;4.89;67.60
61113;BME280;47184;57.998;56.184;2023-10-19T04:45:31;99405.34;;;4.76;67.54
61113;BME280;47184;57.998;56.184;2023-10-19T04:47:57;99381.28;;;4.62;68.10
61113;BME280;47184;57.998;56.184;2023-10-19T04:50:23;99412.09;;;4.78;67.99
61113;BME280;47184;57.998;56.184;2023-10-19T04:52:49;99418.56;;;4.84;67.99
61113;BME280;47184;57.998;56.184;2023-10-19T04:55:15;99406.06;;;4.78;67.59
61113;BME280;47184;57.998;56.184;2023-10-19T04:57:41;99328.03;;;4.25;67.63
61113;BME280;47184;57.998;56.184;2023-10-19T05:00:08;99413.47;;;4.82;67.26
61113;BME280;47184;57.998;56.184;2023-10-19T05:02:39;99408.94;;;4.55;67.46
61113;BME280;47184;57.998;56.184;2023-10-19T05:05:05;99417.44;;;5.06;67.12
61113;BME280;47184;57.998;56.184;2023-10-19T05:07:31;99424.88;;;5.10;66.88
61113;BME280;47184;57.998;56.184;2023-10-19T05:09:59;99430.25;;;4.99;67.31
61113;BME280;47184;57.998;56.184;2023-10-19T05:12:25;99419.53;;;4.83;67.07
61113;BME280;47184;57.998;56.184;2023-10-19T05:14:51;99411.66;;;4.73;67.10
61113;BME280;47184;57.998;56.184;2023-10-19T05:17:17;99388.00;;;4.65;66.55
61113;BME280;47184;57.998;56.184;2023-10-19T05:19:46;99452.00;;;5.09;67.00
61113;BME280;47184;57.998;56.184;2023-10-19T05:22:12;99445.81;;;5.01;66.59
61113;BME280;47184;57.998;56.184;2023-10-19T05:24:40;99411.81;;;4.81;67.33
61113;BME280;47184;57.998;56.184;2023-10-19T05:27:07;99419.13;;;4.68;67.35
61113;BME280;47184;57.998;56.184;2023-10-19T05:29:36;99444.44;;;4.87;67.38
61113;BME280;47184;57.998;56.184;2023-10-19T05:32:04;99427.22;;;4.84;67.51
61113;BME280;47184;57.998;56.184;2023-10-19T05:34:31;99414.72;;;4.78;67.40
61113;BME280;47184;57.998;56.184;2023-10-19T05:36:58;99452.28;;;4.96;66.82
61113;BME280;47184;57.998;56.184;2023-10-19T05:39:28;99459.59;;;5.12;66.17
61113;BME280;47184;57.998;56.184;2023-10-19T05:41:57;99459.72;;;5.20;65.29
61113;BME280;47184;57.998;56.184;2023-10-19T05:44:30;99415.66;;;4.96;65.18
61113;BME280;47184;57.998;56.184;2023-10-19T05:46:56;99421.31;;;4.63;65.71
61113;BME280;47184;57.998;56.184;2023-10-19T05:49:24;99487.56;;;5.02;65.09
61113;BME280;47184;57.998;56.184;2023-10-19T05:52:07;99464.81;;;4.64;65.97
61113;BME280;47184;57.998;56.184;2023-10-19T05:54:35;99409.25;;;4.02;66.50
61113;BME280;47184;57.998;56.184;2023-10-19T05:57:05;99512.84;;;4.63;66.44
61113;BME280;47184;57.998;56.184;2023-10-19T05:59:35;99335.63;;;3.68;66.36
61113;BME280;47184;57.998;56.184;2023-10-19T06:02:06;99537.06;;;4.65;66.00
61113;BME280;47184;57.998;56.184;2023-10-19T06:04:34;99427.78;;;3.89;68.42
61113;BME280;47184;57.998;56.184;2023-10-19T06:07:04;99526.13;;;4.00;69.89
61113;BME280;47184;57.998;56.184;2023-10-19T06:09:56;99522.56;;;3.80;70.41
61113;BME280;47184;57.998;56.184;2023-10-19T06:12:32;99461.03;;;3.36;70.58
61113;BME280;47184;57.998;56.184;2023-10-19T06:15:04;99386.91;;;2.76;70.65
61113;BME280;47184;57.998;56.184;2023-10-19T06:17:40;99537.03;;;3.84;70.01
61113;BME280;47184;57.998;56.184;2023-10-19T06:20:13;99307.41;;;2.28;71.44
61113;BME280;47184;57.998;56.184;2023-10-19T06:22:58;99554.13;;;3.67;71.79
61113;BME280;47184;57.998;56.184;2023-10-19T06:25:34;99154.78;;;1.31;71.71
61113;BME280;47184;57.998;56.184;2023-10-19T06:28:05;99506.09;;;3.80;71.56
61113;BME280;47184;57.998;56.184;2023-10-19T06:30:38;99332.50;;;2.61;70.67
61113;BME280;47184;57.998;56.184;2023-10-19T06:33:09;99102.03;;;1.40;69.53
61113;BME280;47184;57.998;56.184;2023-10-19T06:35:36;99332.56;;;3.22;68.79
61113;BME280;47184;57.998;56.184;2023-10-19T06:38:19;99333.44;;;3.02;66.75
61113;BME280;47184;57.998;56.184;2023-10-19T06:40:52;99344.06;;;3.51;65.83
61113;BME280;47184;57.998;56.184;2023-10-19T06:43:28;99354.47;;;3.71;64.72
61113;BME280;47184;57.998;56.184;2023-10-19T06:45:58;99322.25;;;3.52;64.13
61113;BME280;47184;57.998;56.184;2023-10-19T06:48:27;99546.38;;;5.27;63.51
61113;BME280;47184;57.998;56.184;2023-10-19T06:50:58;99462.63;;;4.79;63.07
61113;BME280;47184;57.998;56.184;2023-10-19T06:53:53;99322.44;;;3.69;62.20
61113;BME280;47184;57.998;56.184;2023-10-19T06:56:24;99332.63;;;3.72;62.23
61113;BME280;47184;57.998;56.184;2023-10-19T06:58:58;99554.88;;;5.10;62.14
61113;BME280;47184;57.998;56.184;2023-10-19T07:01:33;99409.19;;;4.52;61.89
61113;BME280;47184;57.998;56.184;2023-10-19T07:04:03;99440.44;;;4.73;61.30
61113;BME280;47184;57.998;56.184;2023-10-19T07:06:41;99390.34;;;4.48;60.17
61113;BME280;47184;57.998;56.184;2023-10-19T07:09:11;99533.09;;;5.58;60.34
61113;BME280;47184;57.998;56.184;2023-10-19T07:15:22;99416.34;;;4.89;58.75
61113;BME280;47184;57.998;56.184;2023-10-19T07:17:59;99403.94;;;5.01;58.68
61113;BME280;47184;57.998;56.184;2023-10-19T07:20:36;99604.59;;;6.16;58.20
61113;BME280;47184;57.998;56.184;2023-10-19T07:23:10;99478.88;;;5.11;58.53
61113;BME280;47184;57.998;56.184;2023-10-19T07:26:01;99390.19;;;4.89;57.42
61113;BME280;47184;57.998;56.184;2023-10-19T07:28:38;99406.72;;;4.89;57.89
61113;BME280;47184;57.998;56.184;2023-10-19T07:31:10;99526.38;;;5.45;57.93
61113;BME280;47184;57.998;56.184;2023-10-19T07:33:53;99412.38;;;4.65;57.43
61113;BME280;47184;57.998;56.184;2023-10-19T07:36:26;99552.53;;;5.65;56.66
61113;BME280;47184;57.998;56.184;2023-10-19T07:39:07;99297.19;;;3.89;55.99
61113;BME280;47184;57.998;56.184;2023-10-19T07:41:45;99591.97;;;5.54;56.21
61113;BME280;47184;57.998;56.184;2023-10-19T07:44:15;99513.97;;;5.09;55.65
61113;BME280;47184;57.998;56.184;2023-10-19T07:46:46;99614.81;;;6.10;55.41
61113;BME280;47184;57.998;56.184;2023-10-19T07:49:12;99563.16;;;5.44;55.73
61113;BME280;47184;57.998;56.184;2023-10-19T07:51:46;99542.34;;;5.42;55.47
61113;BME280;47184;57.998;56.184;2023-10-19T07:54:15;99599.41;;;5.58;55.27
61113;BME280;47184;57.998;56.184;2023-10-19T07:57:06;99661.97;;;5.71;54.91
61113;BME280;47184;57.998;56.184;2023-10-19T07:59:38;99403.88;;;4.04;55.16
61113;BME280;47184;57.998;56.184;2023-10-19T08:02:10;99619.28;;;5.51;55.30
61113;BME280;47184;57.998;56.184;2023-10-19T08:04:42;99657.44;;;5.73;55.69
61113;BME280;47184;57.998;56.184;2023-10-19T08:07:08;99659.63;;;5.58;55.46
61113;BME280;47184;57.998;56.184;2023-10-19T08:09:36;99586.56;;;5.07;56.17
61113;BME280;47184;57.998;56.184;2023-10-19T08:12:02;99641.72;;;5.54;56.41
61113;BME280;47184;57.998;56.184;2023-10-19T08:14:38;99661.44;;;5.67;57.09
61113;BME280;47184;57.998;56.184;2023-10-19T08:17:08;99597.03;;;5.16;57.45
61113;BME280;47184;57.998;56.184;2023-10-19T08:19:39;99655.50;;;5.36;57.70
61113;BME280;47184;57.998;56.184;2023-10-19T08:22:10;99654.22;;;5.11;58.69
61113;BME280;47184;57.998;56.184;2023-10-19T08:24:44;99510.16;;;4.34;58.59
61113;BME280;47184;57.998;56.184;2023-10-19T08:27:17;99705.00;;;5.68;57.83
61113;BME280;47184;57.998;56.184;2023-10-19T08:29:55;99478.38;;;4.29;58.29
61113;BME280;47184;57.998;56.184;2023-10-19T08:32:36;99481.97;;;4.47;57.05
61113;BME280;47184;57.998;56.184;2023-10-19T08:35:27;99514.00;;;4.30;58.13
61113;BME280;47184;57.998;56.184;2023-10-19T08:37:56;99698.13;;;5.77;57.65
61113;BME280;47184;57.998;56.184;2023-10-19T08:40:25;99692.63;;;5.80;57.14
61113;BME280;47184;57.998;56.184;2023-10-19T08:43:04;99546.88;;;4.92;57.19
61113;BME280;47184;57.998;56.184;2023-10-19T08:45:35;99692.88;;;5.87;57.23
61113;BME280;47184;57.998;56.184;2023-10-19T08:48:06;99625.53;;;5.10;57.37
61113;BME280;47184;57.998;56.184;2023-10-19T08:50:35;99535.00;;;4.18;57.29
61113;BME280;47184;57.998;56.184;2023-10-19T08:53:13;99626.59;;;4.88;57.08
61113;BME280;47184;57.998;56.184;2023-10-19T08:55:47;99669.97;;;5.31;56.82
61113;BME280;47184;57.998;56.184;2023-10-19T08:58:18;99560.22;;;4.69;56.91
61113;BME280;47184;57.998;56.184;2023-10-19T09:00:49;99724.72;;;5.72;57.68
61113;BME280;47184;57.998;56.184;2023-10-19T09:03:24;99719.88;;;5.58;57.23
61113;BME280;47184;57.998;56.184;2023-10-19T09:05:54;99685.94;;;5.37;56.76
61113;BME280;47184;57.998;56.184;2023-10-19T09:08:22;99683.84;;;5.21;57.09
61113;BME280;47184;57.998;56.184;2023-10-19T09:10:54;99610.84;;;4.68;57.06
61113;BME280;47184;57.998;56.184;2023-10-19T09:13:44;99672.28;;;5.34;56.87
61113;BME280;47184;57.998;56.184;2023-10-19T09:16:15;99563.59;;;4.60;56.62
61113;BME280;47184;57.998;56.184;2023-10-19T09:18:46;99519.22;;;3.99;55.98
61113;BME280;47184;57.998;56.184;2023-10-19T09:21:20;99591.75;;;4.78;55.68
61113;BME280;47184;57.998;56.184;2023-10-19T09:23:57;99771.25;;;6.00;55.33
61113;BME280;47184;57.998;56.184;2023-10-19T09:26:25;99673.72;;;5.77;54.69
61113;BME280;47184;57.998;56.184;2023-10-19T09:28:53;99683.50;;;5.84;54.58
61113;BME280;47184;57.998;56.184;2023-10-19T09:31:21;99625.88;;;5.45;54.11
61113;BME280;47184;57.998;56.184;2023-10-19T09:33:50;99489.06;;;4.95;53.94
61113;BME280;47184;57.998;56.184;2023-10-19T09:36:21;99690.69;;;6.11;53.94
61113;BME280;47184;57.998;56.184;2023-10-19T09:38:56;99767.28;;;6.81;53.40
61113;BME280;47184;57.998;56.184;2023-10-19T09:41:24;99743.66;;;6.91;53.00
61113;BME280;47184;57.998;56.184;2023-10-19T09:44:09;99550.47;;;5.68;52.17
61113;BME280;47184;57.998;56.184;2023-10-19T09:46:41;99764.06;;;6.97;52.07
61113;BME280;47184;57.998;56.184;2023-10-19T09:49:16;99553.53;;;5.44;51.37
61113;BME280;47184;57.998;56.184;2023-10-19T09:51:49;99745.13;;;6.66;51.70
61113;BME280;47184;57.998;56.184;2023-10-19T09:54:37;99770.78;;;6.72;51.86
61113;BME280;47184;57.998;56.184;2023-10-19T09:57:14;99701.31;;;6.29;51.67
61113;BME280;47184;57.998;56.184;2023-10-19T09:59:46;99782.06;;;6.92;51.00
61113;BME280;47184;57.998;56.184;2023-10-19T10:02:20;99715.09;;;6.22;51.22
61113;BME280;47184;57.998;56.184;2023-10-19T10:04:49;99723.09;;;6.20;50.70
61113;BME280;47184;57.998;56.184;2023-10-19T10:07:21;99786.28;;;6.56;51.14
61113;BME280;47184;57.998;56.184;2023-10-19T10:09:57;99670.78;;;5.41;50.81
61113;BME280;47184;57.998;56.184;2023-10-19T10:12:27;99698.00;;;5.88;50.43
61113;BME280;47184;57.998;56.184;2023-10-19T10:14:59;99641.44;;;5.57;50.87
61113;BME280;47184;57.998;56.184;2023-10-19T10:17:56;99808.22;;;6.64;51.20
61113;BME280;47184;57.998;56.184;2023-10-19T10:20:36;99746.25;;;6.44;50.69
61113;BME280;47184;57.998;56.184;2023-10-19T10:23:20;99680.06;;;6.13;50.89
61113;BME280;47184;57.998;56.184;2023-10-19T10:26:00;99795.22;;;6.82;50.87
61113;BME280;47184;57.998;56.184;2023-10-19T10:28:39;99666.16;;;6.12;50.13
61113;BME280;47184;57.998;56.184;2023-10-19T10:31:23;99602.56;;;6.01;50.41
61113;BME280;47184;57.998;56.184;2023-10-19T10:33:54;99643.72;;;6.37;50.57
61113;BME280;47184;57.998;56.184;2023-10-19T10:36:24;99800.66;;;7.08;50.35
61113;BME280;47184;57.998;56.184;2023-10-19T10:39:02;99827.63;;;7.38;50.85
61113;BME280;47184;57.998;56.184;2023-10-19T10:41:55;99825.00;;;7.38;50.39
61113;BME280;47184;57.998;56.184;2023-10-19T10:44:41;99815.31;;;7.38;50.50
61113;BME280;47184;57.998;56.184;2023-10-19T10:47:23;99650.66;;;6.29;50.55
61113;BME280;47184;57.998;56.184;2023-10-19T10:50:10;99574.97;;;5.87;50.26
61113;BME280;47184;57.998;56.184;2023-10-19T10:52:42;99715.03;;;6.98;49.95
61113;BME280;47184;57.998;56.184;2023-10-19T10:55:16;99817.13;;;7.48;50.14
61113;BME280;47184;57.998;56.184;2023-10-19T10:57:45;99831.19;;;7.47;49.13
61113;BME280;47184;57.998;56.184;2023-10-19T11:00:15;99857.19;;;7.50;49.24
61113;BME280;47184;57.998;56.184;2023-10-19T11:03:10;99819.13;;;7.63;49.24
61113;BME280;47184;57.998;56.184;2023-10-19T11:05:38;99713.50;;;6.67;48.70
61113;BME280;47184;57.998;56.184;2023-10-19T11:08:33;99436.59;;;4.87;48.52
61113;BME280;47184;57.998;56.184;2023-10-19T11:11:04;99683.31;;;6.54;48.33
61113;BME280;47184;57.998;56.184;2023-10-19T11:13:40;99834.25;;;7.42;48.43
61113;BME280;47184;57.998;56.184;2023-10-19T11:16:24;99672.25;;;6.50;48.10
61113;BME280;47184;57.998;56.184;2023-10-19T11:19:12;99676.31;;;6.35;48.07
61113;BME280;47184;57.998;56.184;2023-10-19T11:21:53;99759.25;;;6.92;47.97
61113;BME280;47184;57.998;56.184;2023-10-19T11:24:51;99690.03;;;6.66;47.79
61113;BME280;47184;57.998;56.184;2023-10-19T11:27:28;99845.22;;;7.65;47.82
61113;BME280;47184;57.998;56.184;2023-10-19T11:30:00;99757.41;;;7.12;47.96
61113;BME280;47184;57.998;56.184;2023-10-19T11:32:38;99579.78;;;5.91;47.77
61113;BME280;47184;57.998;56.184;2023-10-19T11:35:04;99860.25;;;7.45;47.88
61113;BME280;47184;57.998;56.184;2023-10-19T11:38:09;99772.47;;;7.10;48.26
61113;BME280;47184;57.998;56.184;2023-10-19T11:41:09;99810.50;;;7.34;48.27
61113;BME280;47184;57.998;56.184;2023-10-19T11:44:02;99627.53;;;6.05;48.05
61113;BME280;47184;57.998;56.184;2023-10-19T11:46:48;99685.38;;;6.50;48.10
61113;BME280;47184;57.998;56.184;2023-10-19T11:49:38;99626.81;;;6.12;48.27
61113;BME280;47184;57.998;56.184;2023-10-19T11:52:38;99772.50;;;7.01;48.31
61113;BME280;47184;57.998;56.184;2023-10-19T11:55:20;99682.44;;;5.97;48.66
61113;BME280;47184;57.998;56.184;2023-10-19T11:58:03;99768.31;;;6.70;48.68
61113;BME280;47184;57.998;56.184;2023-10-19T12:00:42;99633.16;;;5.71;48.69
61113;BME280;47184;57.998;56.184;2023-10-19T12:03:23;99706.28;;;6.23;48.69
61113;BME280;47184;57.998;56.184;2023-10-19T12:06:13;99721.16;;;6.22;48.71
61113;BME280;47184;57.998;56.184;2023-10-19T12:09:10;99850.44;;;7.00;48.25
61113;BME280;47184;57.998;56.184;2023-10-19T12:11:56;99850.16;;;7.03;48.55
61113;BME280;47184;57.998;56.184;2023-10-19T12:14:29;99673.56;;;5.78;48.91
61113;BME280;47184;57.998;56.184;2023-10-19T12:17:03;99848.09;;;6.87;49.32
61113;BME280;47184;57.998;56.184;2023-10-19T12:19:36;99880.56;;;6.77;49.34
61113;BME280;47184;57.998;56.184;2023-10-19T12:22:12;99523.31;;;4.72;49.13
61113;BME280;47184;57.998;56.184;2023-10-19T12:24:46;99855.03;;;6.79;49.02
61113;BME280;47184;57.998;56.184;2023-10-19T12:27:53;99498.81;;;4.14;49.35
61113;BME280;47184;57.998;56.184;2023-10-19T12:30:25;99712.72;;;5.60;49.22
61113;BME280;47184;57.998;56.184;2023-10-19T12:33:05;99886.63;;;6.77;49.24
61113;BME280;47184;57.998;56.184;2023-10-19T12:35:40;99493.66;;;4.33;49.15
61113;BME280;47184;57.998;56.184;2023-10-19T12:38:57;99741.75;;;5.98;49.44
61113;BME280;47184;57.998;56.184;2023-10-19T12:41:43;99827.69;;;6.52;49.64
61113;BME280;47184;57.998;56.184;2023-10-19T12:44:15;99888.44;;;6.77;49.24
61113;BME280;47184;57.998;56.184;2023-10-19T12:47:07;99742.50;;;5.79;49.80
61113;BME280;47184;57.998;56.184;2023-10-19T12:49:44;99803.13;;;6.14;50.07
61113;BME280;47184;57.998;56.184;2023-10-19T12:52:31;99797.59;;;5.98;49.96
61113;BME280;47184;57.998;56.184;2023-10-19T12:55:16;99651.44;;;5.03;50.10
61113;BME280;47184;57.998;56.184;2023-10-19T12:58:10;99722.63;;;5.47;50.95
61113;BME280;47184;57.998;56.184;2023-10-19T13:00:57;99864.69;;;6.39;50.67
61113;BME280;47184;57.998;56.184;2023-10-19T13:03:35;99848.25;;;6.18;51.06
61113;BME280;47184;57.998;56.184;2023-10-19T13:06:19;99776.25;;;5.53;51.07
61113;BME280;47184;57.998;56.184;2023-10-19T13:09:26;99819.38;;;5.99;50.77
61113;BME280;47184;57.998;56.184;2023-10-19T13:12:19;99935.66;;;6.38;50.94
61113;BME280;47184;57.998;56.184;2023-10-19T13:15:09;99494.09;;;3.77;51.40
61113;BME280;47184;57.998;56.184;2023-10-19T13:17:43;99903.34;;;6.57;50.68
61113;BME280;47184;57.998;56.184;2023-10-19T13:20:19;99646.28;;;4.92;50.80
61113;BME280;47184;57.998;56.184;2023-10-19T13:23:12;99910.25;;;6.38;51.18
61113;BME280;47184;57.998;56.184;2023-10-19T13:26:24;99857.78;;;6.19;51.16
61113;BME280;47184;57.998;56.184;2023-10-19T13:29:06;99607.66;;;4.65;51.22
61113;BME280;47184;57.998;56.184;2023-10-19T13:32:01;99937.19;;;6.50;51.38
61113;BME280;47184;57.998;56.184;2023-10-19T13:34:34;99528.72;;;4.00;51.37
61113;BME280;47184;57.998;56.184;2023-10-19T13:37:10;99718.16;;;5.28;51.35
61113;BME280;47184;57.998;56.184;2023-10-19T13:39:47;99726.44;;;5.33;51.52
61113;BME280;47184;57.998;56.184;2023-10-19T13:42:35;99780.81;;;5.60;51.27
61113;BME280;47184;57.998;56.184;2023-10-19T13:45:05;99917.19;;;6.49;51.47